createdAt,value
2023-04-28T00:00:40.381Z,6.95
2023-04-28T00:05:36.878Z,6.88
2023-04-28T00:10:33.719Z,6.90
2023-04-28T00:15:30.305Z,6.92
2023-04-28T00:20:26.707Z,6.99
2023-04-28T00:25:23.120Z,6.95
2023-04-28T00:30:19.554Z,6.91
2023-04-28T00:35:16.323Z,6.88
2023-04-28T00:40:12.960Z,6.87
2023-04-28T00:45:09.577Z,6.90
2023-04-28T00:50:06.672Z,6.89
2023-04-28T00:55:04.911Z,6.81
2023-04-28T01:00:02.131Z,6.85
2023-04-28T01:04:59.260Z,6.81
2023-04-28T01:09:56.126Z,6.91
2023-04-28T01:14:52.652Z,6.95
2023-04-28T01:19:49.002Z,6.88
2023-04-28T01:24:45.815Z,6.92
2023-04-28T01:29:42.250Z,6.95
2023-04-28T01:34:38.627Z,7.02
2023-04-28T01:39:36.191Z,7.27
2023-04-28T01:44:32.661Z,7.37
2023-04-28T01:49:29.016Z,7.43
2023-04-28T01:54:25.988Z,7.52
2023-04-28T01:59:22.384Z,7.62
2023-04-28T02:04:18.922Z,7.69
2023-04-28T02:09:15.466Z,7.77
2023-04-28T02:14:11.839Z,7.77
2023-04-28T02:19:08.228Z,7.74
2023-04-28T02:24:04.981Z,7.76
2023-04-28T02:29:01.518Z,7.84
2023-04-28T02:33:57.863Z,7.82
2023-04-28T02:38:54.175Z,7.82
2023-04-28T02:43:50.726Z,7.92
2023-04-28T02:48:47.060Z,7.83
2023-04-28T02:53:43.428Z,7.80
2023-04-28T02:58:39.813Z,7.80
2023-04-28T03:03:36.407Z,7.71
2023-04-28T03:08:33.048Z,7.76
2023-04-28T03:13:30.147Z,7.87
2023-04-28T03:18:26.564Z,7.86
2023-04-28T03:23:22.934Z,7.83
2023-04-28T03:28:19.486Z,7.83
2023-04-28T03:33:16.212Z,7.89
2023-04-28T03:38:12.580Z,8.01
2023-04-28T03:43:09.024Z,7.97
2023-04-28T03:48:05.540Z,7.98
2023-04-28T03:53:02.165Z,7.95
2023-04-28T03:57:58.541Z,7.98
2023-04-28T04:02:55.052Z,8.01
2023-04-28T04:07:51.729Z,8.13
2023-04-28T04:12:48.182Z,8.18
2023-04-28T04:17:44.748Z,8.18
2023-04-28T04:22:41.224Z,8.15
2023-04-28T04:27:37.702Z,8.20
2023-04-28T04:32:34.134Z,8.27
2023-04-28T04:37:30.885Z,8.27
2023-04-28T04:42:27.366Z,8.34
2023-04-28T04:47:24.085Z,8.34
2023-04-28T04:52:20.559Z,8.37
2023-04-28T04:57:17.355Z,8.37
2023-04-28T05:02:13.880Z,8.39
2023-04-28T05:07:10.365Z,8.39
2023-04-28T05:12:06.957Z,8.46
2023-04-28T05:17:03.407Z,8.52
2023-04-28T05:22:01.118Z,8.58
2023-04-28T05:26:59.445Z,8.72
2023-04-28T05:31:55.979Z,8.89
2023-04-28T05:36:53.029Z,9.07
2023-04-28T05:41:49.466Z,9.09
2023-04-28T05:46:45.927Z,9.10
2023-04-28T05:51:42.456Z,9.12
2023-04-28T05:56:39.033Z,9.19
2023-04-28T06:01:35.633Z,9.22
2023-04-28T06:06:34.150Z,9.30
2023-04-28T06:11:30.656Z,9.39
2023-04-28T06:16:27.216Z,9.53
2023-04-28T06:21:25.002Z,9.60
2023-04-28T06:26:21.582Z,9.60
2023-04-28T06:31:18.000Z,9.73
2023-04-28T06:36:16.811Z,9.86
2023-04-28T06:41:13.417Z,10.05
2023-04-28T06:46:11.229Z,10.10
2023-04-28T06:51:07.836Z,10.12
2023-04-28T06:56:05.414Z,10.22
2023-04-28T07:01:03.965Z,10.29
2023-04-28T07:06:00.585Z,10.40
2023-04-28T07:10:57.100Z,10.44
2023-04-28T07:15:53.506Z,10.61
2023-04-28T07:20:50.017Z,10.85
2023-04-28T07:25:46.506Z,11.12
2023-04-28T07:30:42.901Z,11.24
2023-04-28T07:35:39.388Z,11.21
2023-04-28T07:40:35.840Z,11.24
2023-04-28T07:45:32.453Z,11.30
2023-04-28T07:50:29.234Z,11.39
2023-04-28T07:55:25.927Z,11.56
2023-04-28T08:00:22.354Z,11.74
2023-04-28T08:05:19.103Z,11.99
2023-04-28T08:10:15.776Z,12.09
2023-04-28T08:15:12.493Z,12.42
2023-04-28T08:20:09.436Z,12.43
2023-04-28T08:25:06.276Z,12.72
2023-04-28T08:30:02.825Z,12.69
2023-04-28T08:34:59.205Z,12.82
2023-04-28T08:40:02.063Z,12.92
2023-04-28T08:45:01.850Z,13.05
2023-04-28T08:50:03.269Z,12.98
2023-04-28T08:55:02.696Z,12.89
2023-04-28T08:59:59.243Z,12.96
2023-04-28T09:04:55.741Z,12.79
2023-04-28T09:10:21.860Z,12.55
2023-04-28T09:15:42.811Z,12.45
2023-04-28T09:20:39.372Z,12.42
2023-04-28T09:25:35.860Z,12.34
2023-04-28T09:30:39.724Z,12.47
2023-04-28T09:35:43.634Z,12.57
2023-04-28T09:40:55.658Z,12.17
2023-04-28T09:45:53.040Z,12.31
2023-04-28T09:50:50.169Z,12.64
2023-04-28T09:55:47.876Z,13.06
2023-04-28T10:00:44.502Z,13.50
2023-04-28T10:05:41.837Z,13.66
2023-04-28T10:10:38.659Z,13.80
2023-04-28T10:15:37.056Z,14.08
2023-04-28T10:20:34.754Z,14.51
2023-04-28T10:25:36.566Z,14.85
2023-04-28T10:30:34.063Z,15.04
2023-04-28T10:35:30.656Z,14.88
2023-04-28T10:40:44.594Z,14.55
2023-04-28T10:45:56.156Z,14.12
2023-04-28T10:51:15.256Z,13.69
2023-04-28T10:56:13.152Z,13.56
2023-04-28T11:01:22.003Z,13.68
2023-04-28T11:06:25.604Z,13.63
2023-04-28T11:11:34.809Z,13.63
2023-04-28T11:16:32.777Z,13.70
2023-04-28T11:21:29.536Z,14.04
2023-04-28T11:26:27.313Z,14.51
2023-04-28T11:31:26.360Z,14.93
2023-04-28T11:36:28.649Z,15.32
2023-04-28T11:41:26.675Z,15.47
2023-04-28T11:46:24.925Z,15.85
2023-04-28T11:51:34.805Z,16.03
2023-04-28T11:56:32.100Z,16.01
2023-04-28T12:01:28.877Z,15.91
2023-04-28T12:06:25.510Z,15.88
2023-04-28T12:11:22.717Z,16.21
2023-04-28T12:16:38.421Z,16.83
2023-04-28T12:21:36.286Z,17.19
2023-04-28T12:26:34.467Z,17.17
2023-04-28T12:31:31.117Z,17.11
2023-04-28T12:36:27.965Z,16.90
2023-04-28T12:41:25.319Z,16.93
2023-04-28T12:46:21.744Z,16.55
2023-04-28T12:51:18.181Z,16.52
2023-04-28T12:56:14.522Z,16.51
2023-04-28T13:01:10.990Z,16.87
2023-04-28T13:06:07.657Z,17.03
2023-04-28T13:11:16.255Z,16.83
2023-04-28T13:16:19.113Z,16.90
2023-04-28T13:21:15.720Z,16.63
2023-04-28T13:26:12.082Z,16.50
2023-04-28T13:31:08.950Z,16.32
2023-04-28T13:36:05.860Z,15.98
2023-04-28T13:41:03.117Z,15.98
2023-04-28T13:45:59.617Z,15.88
2023-04-28T13:50:56.072Z,15.68
2023-04-28T13:55:54.110Z,15.51
2023-04-28T14:00:50.740Z,15.42
2023-04-28T14:05:57.558Z,15.27
2023-04-28T14:10:54.083Z,15.21
2023-04-28T14:15:59.011Z,15.06
2023-04-28T14:20:56.395Z,15.00
2023-04-28T14:25:56.960Z,14.92
2023-04-28T14:30:54.464Z,14.82
2023-04-28T14:35:50.964Z,14.47
2023-04-28T14:40:47.688Z,14.44
2023-04-28T14:45:44.735Z,14.37
2023-04-28T14:50:43.077Z,14.13
2023-04-28T14:55:39.521Z,14.17
2023-04-28T15:00:36.281Z,14.17
2023-04-28T15:05:32.910Z,14.17
2023-04-28T15:10:37.217Z,14.31
2023-04-28T15:15:34.449Z,14.45
2023-04-28T15:20:33.238Z,14.37
2023-04-28T15:25:29.746Z,14.85
2023-04-28T15:30:26.383Z,15.36
2023-04-28T15:35:22.812Z,15.57
2023-04-28T15:40:19.643Z,15.55
2023-04-28T15:45:18.450Z,15.28
2023-04-28T15:50:16.109Z,15.00
2023-04-28T15:55:15.461Z,14.98
2023-04-28T16:00:12.738Z,14.59
2023-04-28T16:05:09.988Z,14.46
2023-04-28T16:10:08.874Z,14.55
2023-04-28T16:15:07.272Z,14.75
2023-04-28T16:20:08.367Z,14.81
2023-04-28T16:25:05.664Z,14.77
2023-04-28T16:30:02.628Z,14.75
2023-04-28T16:34:59.787Z,14.71
2023-04-28T16:39:56.631Z,14.66
2023-04-28T16:44:53.404Z,14.65
2023-04-28T16:49:49.974Z,14.66
2023-04-28T16:54:46.749Z,14.84
2023-04-28T16:59:43.145Z,15.23
2023-04-28T17:04:39.763Z,15.41
2023-04-28T17:09:36.236Z,15.38
2023-04-28T17:14:32.582Z,15.01
2023-04-28T17:19:28.963Z,14.81
2023-04-28T17:24:25.391Z,14.61
2023-04-28T17:29:22.116Z,14.60
2023-04-28T17:34:19.994Z,14.61
2023-04-28T17:39:16.834Z,14.45
2023-04-28T17:44:13.297Z,14.29
2023-04-28T17:49:09.722Z,14.11
2023-04-28T17:54:09.559Z,13.93
2023-04-28T17:59:06.198Z,13.73
2023-04-28T18:04:02.623Z,13.54
2023-04-28T18:08:59.009Z,13.43
2023-04-28T18:13:55.669Z,13.37
2023-04-28T18:18:52.048Z,13.31
2023-04-28T18:23:48.479Z,13.00
2023-04-28T18:28:48.161Z,12.82
2023-04-28T18:33:45.072Z,12.77
2023-04-28T18:38:41.504Z,12.72
2023-04-28T18:43:37.853Z,12.60
2023-04-28T18:48:34.400Z,12.57
2023-04-28T18:53:31.920Z,12.56
2023-04-28T18:58:28.439Z,12.55
2023-04-28T19:03:25.046Z,12.54
2023-04-28T19:08:21.544Z,12.55
2023-04-28T19:13:17.945Z,12.52
2023-04-28T19:18:14.497Z,12.51
2023-04-28T19:23:11.198Z,12.52
2023-04-28T19:28:08.367Z,12.49
2023-04-28T19:33:04.876Z,12.50
2023-04-28T19:38:01.297Z,12.50
2023-04-28T19:42:57.756Z,12.48
2023-04-28T19:47:55.471Z,12.48
2023-04-28T19:52:51.981Z,12.46
2023-04-28T19:57:48.388Z,12.44
2023-04-28T20:02:44.844Z,12.43
2023-04-28T20:07:42.021Z,12.41
2023-04-28T20:12:38.966Z,12.32
2023-04-28T20:17:35.518Z,12.27
2023-04-28T20:22:32.230Z,12.26
2023-04-28T20:27:28.577Z,12.23
2023-04-28T20:32:25.045Z,12.18
2023-04-28T20:37:22.743Z,12.15
2023-04-28T20:42:19.302Z,12.12
2023-04-28T20:47:15.665Z,12.11
2023-04-28T20:52:12.015Z,12.10
2023-04-28T20:57:09.336Z,12.08
2023-04-28T21:02:05.994Z,12.07
2023-04-28T21:07:02.460Z,12.07
2023-04-28T21:11:58.840Z,12.06
2023-04-28T21:16:55.439Z,12.03
2023-04-28T21:21:52.356Z,12.02
2023-04-28T21:26:48.890Z,11.99
2023-04-28T21:31:46.068Z,11.98
2023-04-28T21:36:42.944Z,11.96
2023-04-28T21:41:39.508Z,11.95
2023-04-28T21:46:36.151Z,11.98
2023-04-28T21:51:32.831Z,11.96
2023-04-28T21:56:29.255Z,11.95
2023-04-28T22:01:27.900Z,11.97
2023-04-28T22:06:24.994Z,11.98
2023-04-28T22:11:21.368Z,11.98
2023-04-28T22:16:17.834Z,11.97
2023-04-28T22:21:14.472Z,11.96
2023-04-28T22:26:11.424Z,11.97
2023-04-28T22:31:08.144Z,11.95
2023-04-28T22:36:05.082Z,11.87
2023-04-28T22:41:02.188Z,11.74
2023-04-28T22:45:58.582Z,11.64
2023-04-28T22:50:54.943Z,11.55
2023-04-28T22:55:51.434Z,11.50
2023-04-28T23:00:47.913Z,11.45
2023-04-28T23:05:46.560Z,11.43
2023-04-28T23:10:42.938Z,11.41
2023-04-28T23:15:39.441Z,11.40
2023-04-28T23:20:35.869Z,11.32
2023-04-28T23:25:32.342Z,11.24
2023-04-28T23:30:28.720Z,11.22
2023-04-28T23:35:25.070Z,11.22
2023-04-28T23:40:21.500Z,11.20
2023-04-28T23:45:17.920Z,11.19
2023-04-28T23:50:14.479Z,11.18
2023-04-28T23:55:11.516Z,11.13
